CDT,Max TemperatureF,Mean TemperatureF,Min TemperatureF,Max Dew PointF,MeanDew PointF,Min DewpointF,Max Humidity, Mean Humidity, Min Humidity, Max Sea Level PressureIn, Mean Sea Level PressureIn, Min Sea Level PressureIn, Max VisibilityMiles, Mean VisibilityMiles, Min VisibilityMiles, Max Wind SpeedMPH, Mean Wind SpeedMPH, Max Gust SpeedMPH,PrecipitationIn, CloudCover, Events, WindDirDegrees
2013-10-1,82,71,60,64,61,57,100,76,42,30.00,29.94,29.87,10,9,3,14,6,17,0.00,1,,175
2013-10-2,84,72,59,68,64,59,100,84,51,30.04,29.97,29.90,10,9,2,14,3,21,0.02,2,Rain-Thunderstorm,153
2013-10-3,86,77,68,68,66,63,94,75,55,29.91,29.86,29.78,10,10,10,18,8,25,0.01,3,Rain-Thunderstorm,158
2013-10-4,87,78,68,68,65,63,88,69,46,29.89,29.84,29.80,10,10,10,20,10,26,0.01,0,Thunderstorm,160
2013-10-5,73,60,44,64,43,36,94,65,39,30.03,29.96,29.89,10,10,7,15,8,20,0.02,2,Rain-Thunderstorm,247
2013-10-6,60,50,39,43,38,34,87,65,42,30.00,29.91,29.87,10,10,10,18,9,25,0.00,4,,246
2013-10-7,71,56,41,45,41,37,100,65,31,30.15,30.09,29.99,10,10,10,8,3,,0.00,0,,230
2013-10-8,77,60,44,50,45,41,93,65,29,30.15,30.10,30.05,10,10,10,15,6,21,0.00,0,,157
2013-10-9,77,62,46,48,45,37,93,63,25,30.14,30.09,30.05,10,10,10,9,5,,0.00,0,,140
2013-10-10,78,62,46,52,50,45,94,67,32,30.10,30.02,29.91,10,10,0,14,5,18,0.00,0,Fog,149
2013-10-11,77,66,55,63,58,52,94,75,57,29.93,29.87,29.80,10,10,10,21,10,28,0.00,2,,154
2013-10-12,71,58,44,61,44,36,94,61,28,30.25,30.09,29.88,10,10,7,18,8,32,0.01,1,Rain-Thunderstorm,317
2013-10-13,71,56,41,41,36,32,93,55,23,30.41,30.33,30.26,10,10,2,13,3,18,0.00,0,,37
2013-10-14,68,56,44,57,43,36,88,62,32,30.31,30.14,29.92,10,10,5,17,6,23,0.00,2,Rain,114
2013-10-15,62,52,42,59,46,36,94,71,45,30.07,29.97,29.88,10,10,2,14,9,23,0.04,3,Rain,254
2013-10-16,59,50,41,46,39,36,87,69,45,30.11,30.05,29.99,10,10,10,10,5,,0.01,5,Rain,275
2013-10-17,66,54,42,46,42,36,100,69,32,30.01,29.97,29.91,10,10,7,15,5,21,0.00,2,Rain,211
2013-10-18,51,43,35,41,36,32,93,80,47,30.13,30.08,30.00,10,10,5,13,6,9,0.05,3,Rain,303
2013-10-19,59,46,33,37,35,32,100,75,39,30.08,30.00,29.91,10,10,5,15,8,23,0.01,4,,211
2013-10-20,69,56,42,41,37,36,76,53,28,29.92,29.87,29.82,10,10,10,16,9,23,0.00,1,,194
2013-10-21,53,45,37,43,34,28,81,63,38,30.12,30.05,29.92,10,10,10,12,6,17,0.00,2,,307
2013-10-22,62,50,37,43,36,32,87,64,39,30.10,29.97,29.89,10,10,10,20,9,26,0.00,4,,254
2013-10-23,51,40,30,36,32,28,93,73,44,30.20,30.12,30.06,10,10,10,8,3,,0.00,3,,257
2013-10-24,50,40,30,34,28,21,93,63,32,30.44,30.32,30.15,10,10,10,15,5,24,0.00,2,,329
2013-10-25,55,39,23,32,25,21,100,60,26,30.49,30.37,30.17,10,10,10,14,3,18,0.00,0,,174
2013-10-26,62,50,37,41,32,28,81,55,31,30.18,30.13,30.09,10,10,10,13,8,17,0.00,0,,270
2013-10-27,62,45,28,32,28,25,93,61,26,30.16,30.07,29.97,10,10,5,10,2,,0.00,0,,183
2013-10-28,64,48,32,52,41,28,94,79,55,30.17,30.12,30.01,10,10,7,9,2,,0.00,0,,144
2013-10-29,62,54,46,63,54,45,100,93,82,30.16,30.05,29.96,10,5,1,12,5,16,0.09,6,Rain,117
2013-10-30,68,65,62,63,62,61,100,92,83,29.99,29.88,29.75,10,8,1,24,9,38,0.01,6,Rain-Thunderstorm,170
2013-10-31,62,53,44,61,50,43,100,92,82,29.74,29.61,29.53,10,10,5,14,7,20,0.01,4,Rain-Thunderstorm,242